Time,TemperatureF,DewpointF,PressureIn,WindDirection,WindDirectionDegrees,WindSpeedMPH,WindSpeedGustMPH,Humidity,HourlyPrecipIn,Conditions,Clouds,dailyrainin,SoftwareType,DateUTC
2013-06-04 00:14:00,58.3,49.0,29.85,WNW,282,0.0,1.0,70,0.00,,,0.00,weatherlink.com 1.10,2013-06-04 07:14:00,
2013-06-04 00:29:00,57.7,49.0,29.85,WNW,282,0.0,1.0,72,0.00,,,0.00,weatherlink.com 1.10,2013-06-04 07:29:00,
2013-06-04 00:44:00,57.5,50.0,29.85,WNW,283,0.0,0.0,75,0.00,,,0.00,weatherlink.com 1.10,2013-06-04 07:44:00,
2013-06-04 00:59:00,56.8,49.0,29.85,WNW,283,0.0,1.0,74,0.00,,,0.00,weatherlink.com 1.10,2013-06-04 07:59:00,
2013-06-04 01:15:00,56.7,49.0,29.84,WNW,283,0.0,1.0,76,0.00,,,0.00,weatherlink.com 1.10,2013-06-04 08:15:00,
2013-06-04 01:30:00,56.3,50.0,29.85,WNW,282,0.0,1.0,78,0.00,,,0.00,weatherlink.com 1.10,2013-06-04 08:30:00,
2013-06-04 01:45:00,55.9,48.0,29.84,WNW,283,0.0,0.0,76,0.00,,,0.00,weatherlink.com 1.10,2013-06-04 08:45:00,
2013-06-04 02:00:00,55.4,49.0,29.85,WNW,283,0.0,0.0,78,0.00,,,0.00,weatherlink.com 1.10,2013-06-04 09:00:00,
2013-06-04 02:15:00,55.5,49.0,29.85,WNW,282,0.0,0.0,79,0.00,,,0.00,weatherlink.com 1.10,2013-06-04 09:15:00,
2013-06-04 02:30:00,54.9,49.0,29.85,WNW,283,0.0,1.0,79,0.00,,,0.00,weatherlink.com 1.10,2013-06-04 09:30:00,
2013-06-04 02:45:00,55.0,49.0,29.85,WNW,283,0.0,0.0,79,0.00,,,0.00,weatherlink.com 1.10,2013-06-04 09:45:00,
2013-06-04 03:00:00,54.3,48.0,29.85,WNW,283,0.0,1.0,79,0.00,,,0.00,weatherlink.com 1.10,2013-06-04 10:00:00,
2013-06-04 03:15:00,53.9,48.0,29.84,WNW,283,0.0,1.0,80,0.00,,,0.00,weatherlink.com 1.10,2013-06-04 10:15:00,
2013-06-04 03:30:00,53.9,48.0,29.85,WNW,283,0.0,1.0,80,0.00,,,0.00,weatherlink.com 1.10,2013-06-04 10:30:00,
2013-06-04 03:45:00,53.4,47.0,29.84,WNW,283,0.0,1.0,80,0.00,,,0.00,weatherlink.com 1.10,2013-06-04 10:45:00,
2013-06-04 04:00:00,53.8,48.0,29.85,WNW,282,0.0,1.0,80,0.00,,,0.00,weatherlink.com 1.10,2013-06-04 11:00:00,
2013-06-04 04:15:00,53.3,47.0,29.85,WNW,282,0.0,0.0,80,0.00,,,0.00,weatherlink.com 1.10,2013-06-04 11:15:00,
2013-06-04 04:30:00,53.2,48.0,29.85,WNW,283,0.0,0.0,82,0.00,,,0.00,weatherlink.com 1.10,2013-06-04 11:30:00,
2013-06-04 04:45:00,53.4,48.0,29.85,WNW,283,0.0,0.0,81,0.00,,,0.00,weatherlink.com 1.10,2013-06-04 11:45:00,
2013-06-04 05:00:00,52.6,47.0,29.85,WNW,283,0.0,0.0,81,0.00,,,0.00,weatherlink.com 1.10,2013-06-04 12:00:00,
2013-06-04 05:15:00,52.1,47.0,29.85,WNW,283,0.0,0.0,82,0.00,,,0.00,weatherlink.com 1.10,2013-06-04 12:15:00,
2013-06-04 05:30:00,52.4,47.0,29.86,WNW,282,0.0,0.0,81,0.00,,,0.00,weatherlink.com 1.10,2013-06-04 12:30:00,
2013-06-04 05:45:00,52.5,47.0,29.86,WNW,283,0.0,0.0,81,0.00,,,0.00,weatherlink.com 1.10,2013-06-04 12:45:00,
2013-06-04 06:00:00,52.5,47.0,29.86,West,280,0.0,0.0,81,0.00,,,0.00,weatherlink.com 1.10,2013-06-04 13:00:00,
2013-06-04 06:15:00,52.4,47.0,29.86,West,280,0.0,0.0,82,0.00,,,0.00,weatherlink.com 1.10,2013-06-04 13:15:00,
2013-06-04 06:30:00,53.0,48.0,29.87,West,280,0.0,0.0,82,0.00,,,0.00,weatherlink.com 1.10,2013-06-04 13:30:00,
2013-06-04 06:45:00,54.0,48.0,29.87,West,280,0.0,0.0,80,0.00,,,0.00,weatherlink.com 1.10,2013-06-04 13:45:00,
2013-06-04 07:00:00,57.8,50.0,29.87,West,280,0.0,0.0,74,0.00,,,0.00,weatherlink.com 1.10,2013-06-04 14:00:00,
2013-06-04 07:15:00,62.2,49.0,29.88,NNW,335,0.0,0.0,63,0.00,,,0.00,weatherlink.com 1.10,2013-06-04 14:15:00,
2013-06-04 07:30:00,62.4,50.0,29.89,ENE,75,0.0,0.0,64,0.00,,,0.00,weatherlink.com 1.10,2013-06-04 14:30:00,
2013-06-04 07:45:00,62.8,50.0,29.89,NW,308,1.0,1.0,64,0.00,,,0.00,weatherlink.com 1.10,2013-06-04 14:45:00,
2013-06-04 08:00:00,63.7,50.0,29.89,East,81,0.0,2.0,61,0.00,,,0.00,weatherlink.com 1.10,2013-06-04 15:00:00,
2013-06-04 08:15:00,65.1,50.0,29.89,NNE,27,1.0,3.0,59,0.00,,,0.00,weatherlink.com 1.10,2013-06-04 15:15:00,
2013-06-04 08:31:00,65.5,50.0,29.90,ENE,72,1.0,2.0,57,0.00,,,0.00,weatherlink.com 1.10,2013-06-04 15:31:00,
2013-06-04 08:46:00,66.8,50.0,29.91,SE,146,1.0,2.0,55,0.00,,,0.00,weatherlink.com 1.10,2013-06-04 15:46:00,
2013-06-04 09:01:00,67.4,50.0,29.91,East,98,1.0,3.0,54,0.00,,,0.00,weatherlink.com 1.10,2013-06-04 16:01:00,
2013-06-04 09:16:00,68.7,50.0,29.91,ENE,61,1.0,3.0,52,0.00,,,0.00,weatherlink.com 1.10,2013-06-04 16:16:00,
2013-06-04 10:01:00,73.1,52.0,29.91,NW,314,0.0,3.0,48,0.00,,,0.00,weatherlink.com 1.10,2013-06-04 17:01:00,
2013-06-04 10:16:00,74.8,53.0,29.91,North,352,1.0,3.0,46,0.00,,,0.00,weatherlink.com 1.10,2013-06-04 17:16:00,
2013-06-04 10:31:00,76.3,53.0,29.91,NNE,18,1.0,4.0,44,0.00,,,0.00,weatherlink.com 1.10,2013-06-04 17:31:00,
2013-06-04 12:01:00,84.1,54.0,29.91,WNW,303,2.0,4.0,35,0.00,,,0.00,weatherlink.com 1.10,2013-06-04 19:01:00,
2013-06-04 12:16:00,85.1,55.0,29.91,SSE,151,2.0,3.0,36,0.00,,,0.00,weatherlink.com 1.10,2013-06-04 19:16:00,
2013-06-04 12:31:00,84.8,53.0,29.91,ESE,117,3.0,5.0,34,0.00,,,0.00,weatherlink.com 1.10,2013-06-04 19:31:00,
2013-06-04 12:47:00,84.8,53.0,29.91,East,90,1.0,5.0,34,0.00,,,0.00,weatherlink.com 1.10,2013-06-04 19:47:00,
2013-06-04 13:02:00,86.8,56.0,29.91,NNE,14,3.0,4.0,35,0.00,,,0.00,weatherlink.com 1.10,2013-06-04 20:02:00,
2013-06-04 13:17:00,85.7,53.0,29.91,NE,34,3.0,6.0,33,0.00,,,0.00,weatherlink.com 1.10,2013-06-04 20:17:00,
2013-06-04 13:32:00,86.6,53.0,29.91,ENE,66,2.0,5.0,32,0.00,,,0.00,weatherlink.com 1.10,2013-06-04 20:32:00,
2013-06-04 13:47:00,88.4,55.0,29.90,SE,131,2.0,4.0,32,0.00,,,0.00,weatherlink.com 1.10,2013-06-04 20:47:00,
2013-06-04 14:02:00,88.4,55.0,29.90,SE,141,1.0,5.0,32,0.00,,,0.00,weatherlink.com 1.10,2013-06-04 21:02:00,
2013-06-04 14:17:00,89.5,56.0,29.90,SSE,150,2.0,3.0,32,0.00,,,0.00,weatherlink.com 1.10,2013-06-04 21:17:00,
2013-06-04 14:32:00,89.7,57.0,29.90,ESE,103,2.0,4.0,33,0.00,,,0.00,weatherlink.com 1.10,2013-06-04 21:32:00,
2013-06-04 14:47:00,89.4,56.0,29.91,SSW,210,0.0,5.0,32,0.00,,,0.00,weatherlink.com 1.10,2013-06-04 21:47:00,
2013-06-04 15:02:00,89.4,55.0,29.91,ESE,108,1.0,4.0,31,0.00,,,0.00,weatherlink.com 1.10,2013-06-04 22:02:00,
2013-06-04 15:17:00,88.3,56.0,29.90,SW,233,1.0,6.0,33,0.00,,,0.00,weatherlink.com 1.10,2013-06-04 22:17:00,
2013-06-04 15:32:00,89.4,56.0,29.90,ENE,77,0.0,3.0,32,0.00,,,0.00,weatherlink.com 1.10,2013-06-04 22:32:00,
2013-06-04 15:47:00,89.2,56.0,29.90,ESE,120,3.0,4.0,32,0.00,,,0.00,weatherlink.com 1.10,2013-06-04 22:47:00,
2013-06-04 16:02:00,89.7,56.0,29.89,SSE,148,1.0,3.0,32,0.00,,,0.00,weatherlink.com 1.10,2013-06-04 23:02:00,
2013-06-04 16:17:00,89.8,56.0,29.89,SE,135,2.0,4.0,32,0.00,,,0.00,weatherlink.com 1.10,2013-06-04 23:17:00,
2013-06-04 16:32:00,88.2,54.0,29.89,SSW,207,1.0,7.0,31,0.00,,,0.00,weatherlink.com 1.10,2013-06-04 23:32:00,
2013-06-04 16:47:00,88.3,53.0,29.88,NNE,33,1.0,5.0,30,0.00,,,0.00,weatherlink.com 1.10,2013-06-04 23:47:00,
2013-06-04 17:02:00,88.1,54.0,29.88,NE,46,2.0,4.0,31,0.00,,,0.00,weatherlink.com 1.10,2013-06-05 00:02:00,
2013-06-04 17:17:00,87.8,54.0,29.89,ENE,72,0.0,3.0,32,0.00,,,0.00,weatherlink.com 1.10,2013-06-05 00:17:00,
2013-06-04 17:32:00,86.8,51.0,29.88,NNE,22,5.0,5.0,29,0.00,,,0.00,weatherlink.com 1.10,2013-06-05 00:32:00,
2013-06-04 17:47:00,86.6,53.0,29.88,NNW,348,1.0,2.0,31,0.00,,,0.00,weatherlink.com 1.10,2013-06-05 00:47:00,
2013-06-04 18:02:00,85.8,53.0,29.88,SE,139,1.0,3.0,32,0.00,,,0.00,weatherlink.com 1.10,2013-06-05 01:02:00,
2013-06-04 18:17:00,85.1,51.0,29.88,WNW,301,0.0,3.0,31,0.00,,,0.00,weatherlink.com 1.10,2013-06-05 01:17:00,
2013-06-04 18:32:00,83.1,53.0,29.88,NW,312,0.0,2.0,36,0.00,,,0.00,weatherlink.com 1.10,2013-06-05 01:32:00,
2013-06-04 18:47:00,81.5,54.0,29.88,NW,307,0.0,1.0,39,0.00,,,0.00,weatherlink.com 1.10,2013-06-05 01:47:00,
2013-06-04 19:02:00,79.4,53.0,29.88,WSW,253,2.0,3.0,40,0.00,,,0.00,weatherlink.com 1.10,2013-06-05 02:02:00,
2013-06-04 19:17:00,77.5,53.0,29.89,NW,314,1.0,1.0,42,0.00,,,0.00,weatherlink.com 1.10,2013-06-05 02:17:00,
2013-06-04 19:32:00,75.8,52.0,29.89,WNW,300,1.0,2.0,43,0.00,,,0.00,weatherlink.com 1.10,2013-06-05 02:32:00,
2013-06-04 19:47:00,74.3,51.0,29.89,NW,308,2.0,2.0,44,0.00,,,0.00,weatherlink.com 1.10,2013-06-05 02:47:00,
2013-06-04 20:02:00,73.1,51.0,29.89,WNW,296,0.0,1.0,46,0.00,,,0.00,weatherlink.com 1.10,2013-06-05 03:02:00,
2013-06-04 20:17:00,71.4,51.0,29.89,WNW,294,0.0,0.0,48,0.00,,,0.00,weatherlink.com 1.10,2013-06-05 03:17:00,
2013-06-04 20:32:00,70.0,50.0,29.90,WNW,294,0.0,0.0,50,0.00,,,0.00,weatherlink.com 1.10,2013-06-05 03:32:00,
2013-06-04 20:47:00,68.8,50.0,29.90,WNW,294,0.0,0.0,52,0.00,,,0.00,weatherlink.com 1.10,2013-06-05 03:47:00,
2013-06-04 21:02:00,67.4,50.0,29.90,WNW,282,0.0,0.0,54,0.00,,,0.00,weatherlink.com 1.10,2013-06-05 04:02:00,
2013-06-04 21:17:00,66.4,50.0,29.90,WNW,283,0.0,0.0,55,0.00,,,0.00,weatherlink.com 1.10,2013-06-05 04:17:00,
2013-06-04 21:32:00,66.2,50.0,29.91,WNW,301,1.0,2.0,56,0.00,,,0.00,weatherlink.com 1.10,2013-06-05 04:32:00,
2013-06-04 21:47:00,65.2,49.0,29.91,WNW,294,0.0,2.0,57,0.00,,,0.00,weatherlink.com 1.10,2013-06-05 04:47:00,
2013-06-04 22:02:00,64.1,50.0,29.92,WNW,293,0.0,1.0,60,0.00,,,0.00,weatherlink.com 1.10,2013-06-05 05:02:00,
2013-06-04 22:17:00,63.5,50.0,29.92,WNW,291,1.0,1.0,61,0.00,,,0.00,weatherlink.com 1.10,2013-06-05 05:17:00,
2013-06-04 22:32:00,62.9,50.0,29.92,WNW,298,0.0,1.0,62,0.00,,,0.00,weatherlink.com 1.10,2013-06-05 05:32:00,
2013-06-04 22:47:00,61.7,49.0,29.92,WNW,297,0.0,1.0,64,0.00,,,0.00,weatherlink.com 1.10,2013-06-05 05:47:00,
2013-06-04 23:02:00,60.9,50.0,29.93,WNW,298,0.0,0.0,67,0.00,,,0.00,weatherlink.com 1.10,2013-06-05 06:02:00,
2013-06-04 23:17:00,60.7,50.0,29.93,WNW,297,0.0,0.0,68,0.00,,,0.00,weatherlink.com 1.10,2013-06-05 06:17:00,
2013-06-04 23:32:00,59.6,50.0,29.93,WNW,299,0.0,0.0,71,0.00,,,0.00,weatherlink.com 1.10,2013-06-05 06:32:00,
2013-06-04 23:47:00,58.6,50.0,29.93,WNW,298,0.0,0.0,72,0.00,,,0.00,weatherlink.com 1.10,2013-06-05 06:47:00,